-2°C Temp
-7°C Dewpoint
69% Humidity
Temperature
16 KM/H
10 MPH
9 KTS
330°
North North
West

Wind Speed
Snow Showers
Pressure 999.62 (hPa) - 29.52 (in)
Visibility 8.7 (mi) - 14.0 (km)

Current Conditions
CYZE
Location 50(km)
Metar :CYZE 220522Z AUTO 33009KT 9SM -SN OVC025 M02/M07 A2952 RMK SLP007
Fri 22nd January 00:22 am

Airport
  Metar Aviation API Data Provided by https://www.checkwx.com/ PHP scripts by weather34.com ©2021